createdAt,value
2022-11-27T00:02:14.566Z,99012.44
2022-11-27T00:04:41.215Z,99012.62
2022-11-27T00:07:07.876Z,99010.77
2022-11-27T00:09:34.609Z,99011.67
2022-11-27T00:12:01.345Z,99014.16
2022-11-27T00:14:27.870Z,99015.16
2022-11-27T00:16:54.520Z,99017.58
2022-11-27T00:19:21.055Z,99016.36
2022-11-27T00:21:47.543Z,99017.01
2022-11-27T00:24:14.049Z,99023.69
2022-11-27T00:26:40.866Z,99024.27
2022-11-27T00:29:07.629Z,99016.02
2022-11-27T00:31:36.610Z,99017.30
2022-11-27T00:34:04.211Z,99012.23
2022-11-27T00:36:31.579Z,99010.23
2022-11-27T00:38:58.772Z,99016.35
2022-11-27T00:41:26.824Z,99016.45
2022-11-27T00:43:53.967Z,99023.46
2022-11-27T00:46:26.865Z,99029.63
2022-11-27T00:48:56.445Z,99023.89
2022-11-27T00:51:23.766Z,99021.66
2022-11-27T00:53:50.428Z,99029.55
2022-11-27T00:56:18.325Z,99026.48
2022-11-27T00:58:45.003Z,99020.95
2022-11-27T01:01:20.006Z,99022.69
2022-11-27T01:03:46.936Z,99013.97
2022-11-27T01:06:13.927Z,99007.28
2022-11-27T01:08:40.926Z,99014.33
2022-11-27T01:11:11.714Z,99016.51
2022-11-27T01:13:38.398Z,99009.92
2022-11-27T01:16:09.611Z,99006.80
2022-11-27T01:18:37.400Z,99016.08
2022-11-27T01:21:04.608Z,99020.05
2022-11-27T01:23:31.560Z,99016.02
2022-11-27T01:26:01.556Z,99017.48
2022-11-27T01:28:28.556Z,99016.95
2022-11-27T01:30:55.498Z,99017.86
2022-11-27T01:33:22.651Z,99020.66
2022-11-27T01:36:04.860Z,99018.77
2022-11-27T01:38:31.963Z,99012.68
2022-11-27T01:40:59.968Z,99012.76
2022-11-27T01:43:45.421Z,99010.78
2022-11-27T01:46:17.537Z,99012.55
2022-11-27T01:48:46.350Z,99016.96
2022-11-27T01:51:13.038Z,99015.63
2022-11-27T01:53:39.613Z,99018.48
2022-11-27T01:56:07.686Z,99016.12
2022-11-27T01:58:34.592Z,99013.27
2022-11-27T02:01:01.181Z,99010.33
2022-11-27T02:03:27.938Z,99013.05
2022-11-27T02:05:54.786Z,99017.59
2022-11-27T02:08:21.664Z,99016.52
2022-11-27T02:10:48.487Z,99015.48
2022-11-27T02:13:20.106Z,99011.58
2022-11-27T02:15:52.756Z,99009.25
2022-11-27T02:18:22.501Z,99011.70
2022-11-27T02:20:57.605Z,99013.61
2022-11-27T02:23:35.841Z,99014.75
2022-11-27T02:26:18.079Z,99016.52
2022-11-27T02:28:54.047Z,99016.74
2022-11-27T02:31:39.494Z,99012.84
2022-11-27T02:34:12.496Z,99015.34
2022-11-27T02:36:40.327Z,99012.25
2022-11-27T02:39:14.267Z,99014.69
2022-11-27T02:41:45.455Z,99016.92
2022-11-27T02:44:12.450Z,99017.74
2022-11-27T02:46:40.263Z,99018.30
2022-11-27T02:49:09.766Z,99020.86
2022-11-27T02:51:39.430Z,99022.97
2022-11-27T02:54:07.545Z,99024.02
2022-11-27T02:56:34.587Z,99027.20
2022-11-27T02:59:04.483Z,99028.61
2022-11-27T03:01:36.363Z,99035.09
2022-11-27T03:04:05.925Z,99037.09
2022-11-27T03:06:36.249Z,99036.10
2022-11-27T03:09:08.382Z,99033.59
2022-11-27T03:11:36.106Z,99036.61
2022-11-27T03:14:07.972Z,99033.91
2022-11-27T03:16:40.381Z,99032.78
2022-11-27T03:19:19.029Z,99031.02
2022-11-27T03:21:45.500Z,99029.20
2022-11-27T03:24:12.306Z,99027.92
2022-11-27T03:26:39.753Z,99026.24
2022-11-27T03:29:10.455Z,99026.17
2022-11-27T03:31:37.579Z,99023.38
2022-11-27T03:34:04.439Z,99024.30
2022-11-27T03:36:30.909Z,99028.50
2022-11-27T03:38:57.674Z,99027.30
2022-11-27T03:41:43.226Z,99028.41
2022-11-27T03:44:29.326Z,99028.73
2022-11-27T03:46:58.688Z,99025.88
2022-11-27T03:49:51.682Z,99024.39
2022-11-27T03:52:35.359Z,99022.39
2022-11-27T03:55:11.882Z,99023.89
2022-11-27T03:57:51.160Z,99024.53
2022-11-27T04:00:18.160Z,99023.36
2022-11-27T04:02:49.729Z,99023.74
2022-11-27T04:05:16.655Z,99023.52
2022-11-27T04:07:43.195Z,99026.64
2022-11-27T04:10:10.307Z,99026.85
2022-11-27T04:12:37.637Z,99025.15
2022-11-27T04:15:05.277Z,99027.81
2022-11-27T04:17:32.092Z,99025.91
2022-11-27T04:19:58.610Z,99026.55
2022-11-27T04:22:25.160Z,99025.66
2022-11-27T04:24:51.798Z,99026.45
2022-11-27T04:27:18.309Z,99022.45
2022-11-27T04:29:45.101Z,99022.02
2022-11-27T04:32:11.765Z,99018.98
2022-11-27T04:34:38.605Z,99017.36
2022-11-27T04:37:05.475Z,99019.16
2022-11-27T04:39:32.028Z,99017.95
2022-11-27T04:41:58.767Z,99022.38
2022-11-27T04:44:25.253Z,99027.93
2022-11-27T04:46:51.934Z,99026.72
2022-11-27T04:49:18.563Z,99023.49
2022-11-27T04:51:45.314Z,99025.10
2022-11-27T04:54:12.009Z,99026.27
2022-11-27T04:56:38.475Z,99021.99
2022-11-27T04:59:05.191Z,99018.11
2022-11-27T05:01:31.780Z,99017.97
2022-11-27T05:03:58.492Z,99020.56
2022-11-27T05:06:25.128Z,99018.21
2022-11-27T05:08:59.156Z,99020.85
2022-11-27T05:11:25.656Z,99022.50
2022-11-27T05:14:12.570Z,99022.90
2022-11-27T05:16:40.390Z,99019.71
2022-11-27T05:19:09.175Z,99021.12
2022-11-27T05:21:36.701Z,99019.88
2022-11-27T05:24:03.920Z,99019.00
2022-11-27T05:26:30.426Z,99024.73
2022-11-27T05:28:57.126Z,99028.79
2022-11-27T05:31:23.845Z,99028.50
2022-11-27T05:33:50.727Z,99025.05
2022-11-27T05:36:17.437Z,99032.34
2022-11-27T05:38:44.019Z,99030.47
2022-11-27T05:41:10.816Z,99032.98
2022-11-27T05:43:37.342Z,99031.33
2022-11-27T05:46:05.314Z,99030.67
2022-11-27T05:48:32.108Z,99031.84
2022-11-27T05:50:59.286Z,99036.17
2022-11-27T05:53:25.839Z,99038.95
2022-11-27T05:55:52.443Z,99040.39
2022-11-27T05:58:18.985Z,99042.52
2022-11-27T06:00:45.638Z,99044.89
2022-11-27T06:03:12.332Z,99043.42
2022-11-27T06:05:39.639Z,99049.50
2022-11-27T06:08:06.648Z,99051.89
2022-11-27T06:10:33.326Z,99049.05
2022-11-27T06:12:59.962Z,99049.37
2022-11-27T06:15:26.418Z,99053.79
2022-11-27T06:17:53.028Z,99053.52
2022-11-27T06:20:19.918Z,99055.00
2022-11-27T06:22:46.762Z,99058.29
2022-11-27T06:25:13.415Z,99060.40
2022-11-27T06:27:40.191Z,99056.30
2022-11-27T06:30:07.441Z,99052.62
2022-11-27T06:32:34.485Z,99053.02
2022-11-27T06:35:01.029Z,99056.60
2022-11-27T06:37:27.659Z,99058.54
2022-11-27T06:39:54.294Z,99061.73
2022-11-27T06:42:21.086Z,99060.23
2022-11-27T06:44:47.710Z,99062.45
2022-11-27T06:47:14.653Z,99063.88
2022-11-27T06:49:41.268Z,99062.02
2022-11-27T06:52:07.806Z,99064.20
2022-11-27T06:54:34.321Z,99064.20
2022-11-27T06:57:01.349Z,99059.47
2022-11-27T06:59:27.922Z,99063.61
2022-11-27T07:01:54.639Z,99062.65
2022-11-27T07:04:21.370Z,99064.33
2022-11-27T07:06:47.819Z,99062.52
2022-11-27T07:09:14.861Z,99061.45
2022-11-27T07:11:41.350Z,99059.48
2022-11-27T07:14:07.899Z,99055.45
2022-11-27T07:16:35.732Z,99055.00
2022-11-27T07:19:04.665Z,99048.56
2022-11-27T07:21:31.238Z,99049.52
2022-11-27T07:23:58.051Z,99051.20
2022-11-27T07:26:26.229Z,99055.48
2022-11-27T07:28:53.276Z,99051.30
2022-11-27T07:31:21.187Z,99050.39
2022-11-27T07:33:48.076Z,99051.94
2022-11-27T07:36:19.877Z,99050.60
2022-11-27T07:38:46.445Z,99047.73
2022-11-27T07:41:13.598Z,99047.95
2022-11-27T07:43:41.084Z,99046.86
2022-11-27T07:46:12.675Z,99044.67
2022-11-27T07:48:39.463Z,99046.80
2022-11-27T07:51:10.215Z,99044.66
2022-11-27T07:53:37.868Z,99045.67
2022-11-27T07:56:05.378Z,99044.81
2022-11-27T07:58:32.215Z,99047.13
2022-11-27T08:00:58.820Z,99047.59
2022-11-27T08:03:25.454Z,99046.52
2022-11-27T08:05:52.181Z,99048.09
2022-11-27T08:08:18.685Z,99049.10
2022-11-27T08:10:45.339Z,99047.10
2022-11-27T08:13:11.812Z,99044.64
2022-11-27T08:15:38.439Z,99044.90
2022-11-27T08:18:04.950Z,99043.41
2022-11-27T08:20:31.516Z,99047.42
2022-11-27T08:23:02.697Z,99047.23
2022-11-27T08:25:30.160Z,99048.52
2022-11-27T08:27:56.733Z,99047.43
2022-11-27T08:30:23.516Z,99046.73
2022-11-27T08:32:50.094Z,99048.27
2022-11-27T08:35:17.076Z,99047.67
2022-11-27T08:37:43.762Z,99050.41
2022-11-27T08:40:10.655Z,99049.17
2022-11-27T08:42:37.153Z,99048.22
2022-11-27T08:45:03.868Z,99048.40
2022-11-27T08:47:31.834Z,99049.08
2022-11-27T08:49:58.402Z,99049.48
2022-11-27T08:52:25.959Z,99054.74
2022-11-27T08:54:57.341Z,99056.70
2022-11-27T08:57:24.693Z,99050.63
2022-11-27T08:59:51.546Z,99047.57
2022-11-27T09:02:18.140Z,99046.59
2022-11-27T09:04:44.658Z,99043.95
2022-11-27T09:07:13.632Z,99041.29
2022-11-27T09:09:40.514Z,99042.04
2022-11-27T09:12:07.587Z,99039.96
2022-11-27T09:14:34.088Z,99033.23
2022-11-27T09:17:00.596Z,99028.06
2022-11-27T09:19:27.471Z,99024.94
2022-11-27T09:21:53.998Z,99027.16
2022-11-27T09:24:20.568Z,99019.58
2022-11-27T09:26:47.365Z,99019.55
2022-11-27T09:29:14.085Z,99019.88
2022-11-27T09:31:40.713Z,99015.93
2022-11-27T09:34:07.509Z,99016.91
2022-11-27T09:36:34.131Z,99014.26
2022-11-27T09:39:02.963Z,99014.05
2022-11-27T09:41:43.587Z,99010.27
2022-11-27T09:44:25.619Z,99011.16
2022-11-27T09:46:53.890Z,99017.34
2022-11-27T09:49:24.056Z,99013.22
2022-11-27T09:51:55.761Z,99007.89
2022-11-27T09:54:33.015Z,99005.86
2022-11-27T09:56:59.850Z,99002.77
2022-11-27T09:59:33.815Z,98997.58
2022-11-27T10:02:00.430Z,98992.23
2022-11-27T10:04:30.375Z,98981.25
2022-11-27T10:07:06.535Z,98980.31
2022-11-27T10:09:45.611Z,98979.43
2022-11-27T10:12:29.585Z,98976.42
2022-11-27T10:15:06.730Z,98971.15
2022-11-27T10:17:37.400Z,98969.35
2022-11-27T10:20:15.366Z,98967.55
2022-11-27T10:22:47.224Z,98965.34
2022-11-27T10:25:20.009Z,98969.08
2022-11-27T10:27:58.520Z,98963.60
2022-11-27T10:30:28.026Z,98960.23
2022-11-27T10:32:56.687Z,98960.65
2022-11-27T10:35:25.975Z,98962.19
2022-11-27T10:38:03.692Z,98953.45
2022-11-27T10:40:42.379Z,98943.96
2022-11-27T10:43:14.997Z,98943.19
2022-11-27T10:45:50.486Z,98944.23
2022-11-27T10:48:17.684Z,98943.08
2022-11-27T10:50:45.482Z,98937.68
2022-11-27T10:53:22.954Z,98939.70
2022-11-27T10:55:52.994Z,98939.27
2022-11-27T10:58:34.250Z,98937.59
2022-11-27T11:01:08.870Z,98934.59
2022-11-27T11:03:35.918Z,98931.80
2022-11-27T11:06:23.139Z,98929.19
2022-11-27T11:09:12.150Z,98929.71
2022-11-27T11:11:39.965Z,98929.79
2022-11-27T11:14:22.842Z,98933.33
2022-11-27T11:16:49.699Z,98929.58
2022-11-27T11:19:28.444Z,98928.84
2022-11-27T11:21:55.136Z,98927.70
2022-11-27T11:24:27.120Z,98924.69
2022-11-27T11:26:56.341Z,98921.39
2022-11-27T11:29:29.131Z,98917.94
2022-11-27T11:31:57.261Z,98913.77
2022-11-27T11:34:27.825Z,98915.49
2022-11-27T11:36:58.969Z,98911.33
2022-11-27T11:39:27.554Z,98907.99
2022-11-27T11:41:54.083Z,98907.09
2022-11-27T11:44:36.150Z,98910.85
2022-11-27T11:47:02.775Z,98908.84
2022-11-27T11:49:32.229Z,98905.85
2022-11-27T11:52:04.835Z,98903.64
2022-11-27T11:54:42.520Z,98900.28
2022-11-27T11:57:18.388Z,98895.70
2022-11-27T11:59:55.370Z,98890.29
2022-11-27T12:02:34.658Z,98887.75
2022-11-27T12:05:20.766Z,98892.19
2022-11-27T12:07:58.490Z,98889.35
2022-11-27T12:10:28.453Z,98884.91
2022-11-27T12:12:58.163Z,98882.33
2022-11-27T12:15:34.055Z,98882.88
2022-11-27T12:18:07.283Z,98882.90
2022-11-27T12:20:54.074Z,98882.09
2022-11-27T12:23:39.068Z,98883.86
2022-11-27T12:26:24.380Z,98883.53
2022-11-27T12:29:03.758Z,98882.24
2022-11-27T12:31:52.026Z,98879.55
2022-11-27T12:34:37.460Z,98880.89
2022-11-27T12:37:14.363Z,98878.30
2022-11-27T12:39:56.785Z,98877.84
2022-11-27T12:42:43.629Z,98879.92
2022-11-27T12:45:20.870Z,98875.05
2022-11-27T12:47:52.367Z,98869.30
2022-11-27T12:50:42.387Z,98871.44
2022-11-27T12:53:20.162Z,98866.22
2022-11-27T12:56:02.354Z,98864.51
2022-11-27T12:58:33.508Z,98856.36
2022-11-27T13:01:02.765Z,98859.27
2022-11-27T13:03:43.645Z,98857.66
2022-11-27T13:06:13.681Z,98861.08
2022-11-27T13:08:40.283Z,98855.80
2022-11-27T13:11:09.565Z,98860.83
2022-11-27T13:13:54.657Z,98856.15
2022-11-27T13:16:26.429Z,98854.27
2022-11-27T13:18:56.054Z,98853.39
2022-11-27T13:21:25.919Z,98857.88
2022-11-27T13:23:53.552Z,98857.02
2022-11-27T13:26:27.000Z,98853.96
2022-11-27T13:28:58.915Z,98852.81
2022-11-27T13:31:27.680Z,98852.72
2022-11-27T13:33:59.216Z,98850.54
2022-11-27T13:36:30.026Z,98851.39
2022-11-27T13:39:00.322Z,98852.20
2022-11-27T13:41:40.571Z,98851.27
2022-11-27T13:44:23.810Z,98848.29
2022-11-27T13:46:54.776Z,98850.90
2022-11-27T13:49:27.557Z,98851.79
2022-11-27T13:52:06.076Z,98854.78
2022-11-27T13:54:32.937Z,98859.74
2022-11-27T13:57:16.061Z,98855.02
2022-11-27T13:59:54.420Z,98854.67
2022-11-27T14:02:21.194Z,98853.66
2022-11-27T14:04:56.182Z,98856.66
2022-11-27T14:07:33.817Z,98855.02
2022-11-27T14:10:06.619Z,98852.57
2022-11-27T14:12:33.764Z,98849.29
2022-11-27T14:15:02.994Z,98849.11
2022-11-27T14:17:34.212Z,98851.41
2022-11-27T14:20:05.865Z,98854.36
2022-11-27T14:22:48.535Z,98855.33
2022-11-27T14:25:24.950Z,98849.42
2022-11-27T14:28:13.911Z,98850.44
2022-11-27T14:30:51.133Z,98850.36
2022-11-27T14:33:25.185Z,98849.63
2022-11-27T14:35:58.878Z,98853.77
2022-11-27T14:38:26.670Z,98851.82
2022-11-27T14:40:54.531Z,98849.61
2022-11-27T14:43:28.231Z,98848.13
2022-11-27T14:46:00.653Z,98847.95
2022-11-27T14:48:30.813Z,98849.73
2022-11-27T14:50:58.019Z,98843.77
2022-11-27T14:53:26.852Z,98846.59
2022-11-27T14:55:55.650Z,98850.45
2022-11-27T14:58:24.644Z,98850.06
2022-11-27T15:01:02.439Z,98848.03
2022-11-27T15:03:29.783Z,98852.10
2022-11-27T15:05:57.997Z,98853.08
2022-11-27T15:08:25.468Z,98854.05
2022-11-27T15:10:53.723Z,98851.25
2022-11-27T15:13:25.012Z,98853.45
2022-11-27T15:15:53.994Z,98852.15
2022-11-27T15:18:22.386Z,98849.22
2022-11-27T15:20:49.635Z,98851.53
2022-11-27T15:23:19.027Z,98851.75
2022-11-27T15:25:48.366Z,98856.16
2022-11-27T15:28:36.944Z,98852.91
2022-11-27T15:31:22.740Z,98850.95
2022-11-27T15:33:57.355Z,98852.28
2022-11-27T15:36:24.221Z,98849.56
2022-11-27T15:38:51.010Z,98851.40
2022-11-27T15:41:29.629Z,98850.90
2022-11-27T15:43:56.813Z,98853.80
2022-11-27T15:46:25.684Z,98855.60
2022-11-27T15:48:52.400Z,98851.84
2022-11-27T15:51:18.995Z,98854.90
2022-11-27T15:53:46.831Z,98856.35
2022-11-27T15:56:15.227Z,98850.81
2022-11-27T15:58:42.333Z,98853.83
2022-11-27T16:01:09.794Z,98857.95
2022-11-27T16:03:36.636Z,98854.50
2022-11-27T16:06:04.349Z,98850.88
2022-11-27T16:08:31.538Z,98851.95
2022-11-27T16:11:05.450Z,98849.45
2022-11-27T16:13:32.500Z,98848.80
2022-11-27T16:16:01.440Z,98841.50
2022-11-27T16:18:28.532Z,98843.35
2022-11-27T16:20:55.189Z,98841.91
2022-11-27T16:23:21.806Z,98845.05
2022-11-27T16:25:48.685Z,98845.49
2022-11-27T16:28:15.286Z,98843.78
2022-11-27T16:30:43.571Z,98844.25
2022-11-27T16:33:10.302Z,98840.92
2022-11-27T16:35:37.823Z,98835.31
2022-11-27T16:38:04.500Z,98838.66
2022-11-27T16:40:34.134Z,98841.94
2022-11-27T16:43:01.165Z,98842.74
2022-11-27T16:45:28.218Z,98843.91
2022-11-27T16:47:55.413Z,98845.73
2022-11-27T16:50:23.355Z,98845.83
2022-11-27T16:52:54.412Z,98847.15
2022-11-27T16:55:23.039Z,98849.06
2022-11-27T16:57:49.578Z,98851.46
2022-11-27T17:00:16.479Z,98847.48
2022-11-27T17:02:43.212Z,98846.39
2022-11-27T17:05:10.232Z,98845.27
2022-11-27T17:07:36.812Z,98841.62
2022-11-27T17:10:03.434Z,98839.73
2022-11-27T17:12:31.561Z,98841.55
2022-11-27T17:14:58.080Z,98835.97
2022-11-27T17:17:24.814Z,98836.76
2022-11-27T17:19:54.559Z,98836.02
2022-11-27T17:22:21.233Z,98835.90
2022-11-27T17:24:47.806Z,98836.30
2022-11-27T17:27:15.153Z,98835.05
2022-11-27T17:29:42.237Z,98836.92
2022-11-27T17:32:12.256Z,98838.92
2022-11-27T17:34:39.162Z,98831.93
2022-11-27T17:37:05.757Z,98830.55
2022-11-27T17:39:32.844Z,98827.64
2022-11-27T17:41:59.485Z,98827.23
2022-11-27T17:44:26.866Z,98824.52
2022-11-27T17:46:53.526Z,98822.58
2022-11-27T17:49:21.321Z,98821.74
2022-11-27T17:51:49.511Z,98820.10
2022-11-27T17:54:16.983Z,98821.59
2022-11-27T17:56:44.559Z,98821.41
2022-11-27T17:59:11.528Z,98818.89
2022-11-27T18:01:39.190Z,98815.17
2022-11-27T18:04:06.268Z,98814.90
2022-11-27T18:06:33.876Z,98813.73
2022-11-27T18:09:01.289Z,98813.55
2022-11-27T18:11:29.497Z,98809.89
2022-11-27T18:13:58.661Z,98810.16
2022-11-27T18:16:28.330Z,98806.17
2022-11-27T18:18:55.873Z,98807.86
2022-11-27T18:21:26.490Z,98805.30
2022-11-27T18:24:21.954Z,98806.80
2022-11-27T18:29:27.118Z,98805.34
2022-11-27T18:31:53.960Z,98802.09
2022-11-27T18:34:20.590Z,98799.73
2022-11-27T18:36:47.405Z,98799.00
2022-11-27T18:39:15.021Z,98792.81
2022-11-27T18:41:41.946Z,98789.68
2022-11-27T18:44:08.494Z,98797.45
2022-11-27T18:46:35.181Z,98795.09
2022-11-27T18:49:01.735Z,98798.73
2022-11-27T18:51:28.594Z,98800.79
2022-11-27T18:53:55.884Z,98802.12
2022-11-27T18:56:23.608Z,98801.40
2022-11-27T18:58:50.992Z,98802.66
2022-11-27T19:01:22.307Z,98802.40
2022-11-27T19:03:49.385Z,98800.41
2022-11-27T19:06:17.630Z,98801.59
2022-11-27T19:08:45.630Z,98802.27
2022-11-27T19:11:14.250Z,98797.26
2022-11-27T19:13:41.943Z,98795.33
2022-11-27T19:16:11.008Z,98794.83
2022-11-27T19:18:38.085Z,98792.21
2022-11-27T19:21:09.082Z,98787.56
2022-11-27T19:23:39.204Z,98787.09
2022-11-27T19:26:07.516Z,98787.96
2022-11-27T19:28:34.483Z,98788.05
2022-11-27T19:31:09.588Z,98789.42
2022-11-27T19:33:38.338Z,98788.40
2022-11-27T19:36:09.720Z,98792.17
2022-11-27T19:38:36.934Z,98789.90
2022-11-27T19:41:07.715Z,98795.55
2022-11-27T19:43:34.603Z,98796.90
2022-11-27T19:46:01.331Z,98794.25
2022-11-27T19:48:28.115Z,98794.03
2022-11-27T19:51:00.161Z,98792.06
2022-11-27T19:53:27.244Z,98793.68
2022-11-27T19:55:54.608Z,98800.17
2022-11-27T19:58:21.362Z,98794.04
2022-11-27T20:00:47.998Z,98795.02
2022-11-27T20:03:14.713Z,98797.54
2022-11-27T20:05:41.434Z,98797.90
2022-11-27T20:08:07.989Z,98797.09
2022-11-27T20:10:34.488Z,98801.80
2022-11-27T20:13:01.264Z,98799.59
2022-11-27T20:15:28.417Z,98798.86
2022-11-27T20:17:55.283Z,98800.42
2022-11-27T20:20:22.341Z,98794.45
2022-11-27T20:22:49.756Z,98790.92
2022-11-27T20:25:20.560Z,98791.58
2022-11-27T20:27:48.255Z,98790.09
2022-11-27T20:30:14.811Z,98793.47
2022-11-27T20:32:41.624Z,98793.61
2022-11-27T20:35:09.114Z,98792.77
2022-11-27T20:37:37.363Z,98792.70
2022-11-27T20:40:04.806Z,98788.09
2022-11-27T20:42:32.508Z,98785.09
2022-11-27T20:45:04.348Z,98786.56
2022-11-27T20:47:31.201Z,98783.50
2022-11-27T20:49:58.221Z,98784.27
2022-11-27T20:52:24.965Z,98780.45
2022-11-27T20:54:52.303Z,98775.52
2022-11-27T20:57:19.059Z,98772.52
2022-11-27T20:59:45.602Z,98771.38
2022-11-27T21:02:12.458Z,98771.47
2022-11-27T21:04:39.375Z,98769.13
2022-11-27T21:07:06.220Z,98768.64
2022-11-27T21:09:33.264Z,98764.20
2022-11-27T21:12:00.310Z,98766.71
2022-11-27T21:14:27.794Z,98768.08
2022-11-27T21:16:54.832Z,98765.88
2022-11-27T21:19:23.121Z,98764.37
2022-11-27T21:21:51.923Z,98764.41
2022-11-27T21:24:19.048Z,98758.94
2022-11-27T21:26:46.458Z,98758.79
2022-11-27T21:29:14.363Z,98754.56
2022-11-27T21:31:46.164Z,98754.09
2022-11-27T21:34:14.076Z,98753.83
2022-11-27T21:36:40.706Z,98751.54
2022-11-27T21:39:10.106Z,98748.95
2022-11-27T21:41:37.049Z,98750.11
2022-11-27T21:44:04.584Z,98751.03
2022-11-27T21:46:31.986Z,98749.39
2022-11-27T21:49:00.180Z,98747.47
2022-11-27T21:51:27.025Z,98744.55
2022-11-27T21:53:56.088Z,98745.85
2022-11-27T21:56:24.385Z,98745.13
2022-11-27T21:58:51.397Z,98745.08
2022-11-27T22:01:20.782Z,98739.58
2022-11-27T22:03:50.812Z,98735.01
2022-11-27T22:06:17.854Z,98738.20
2022-11-27T22:08:46.678Z,98735.11
2022-11-27T22:11:15.122Z,98735.75
2022-11-27T22:13:42.011Z,98732.79
2022-11-27T22:16:10.619Z,98732.86
2022-11-27T22:18:37.801Z,98734.16
2022-11-27T22:21:05.199Z,98738.54
2022-11-27T22:23:32.402Z,98737.17
2022-11-27T22:26:00.098Z,98735.61
2022-11-27T22:28:27.420Z,98735.99
2022-11-27T22:30:54.140Z,98734.23
2022-11-27T22:33:21.146Z,98729.58
2022-11-27T22:35:47.650Z,98730.34
2022-11-27T22:38:14.457Z,98730.45
2022-11-27T22:40:43.692Z,98728.27
2022-11-27T22:43:10.617Z,98727.15
2022-11-27T22:45:38.323Z,98729.92
2022-11-27T22:48:05.315Z,98728.36
2022-11-27T22:50:32.371Z,98724.69
2022-11-27T22:52:59.620Z,98727.77
2022-11-27T22:55:27.629Z,98726.35
2022-11-27T22:57:54.635Z,98726.33
2022-11-27T23:00:22.195Z,98723.78
2022-11-27T23:02:48.747Z,98723.92
2022-11-27T23:05:15.571Z,98718.46
2022-11-27T23:07:42.393Z,98718.83
2022-11-27T23:10:09.203Z,98718.56
2022-11-27T23:12:35.903Z,98717.46
2022-11-27T23:15:02.845Z,98717.38
2022-11-27T23:17:29.375Z,98716.91
2022-11-27T23:19:56.041Z,98714.25
2022-11-27T23:22:22.641Z,98712.06
2022-11-27T23:24:49.176Z,98715.13
2022-11-27T23:27:15.710Z,98714.92
2022-11-27T23:29:42.322Z,98712.39
2022-11-27T23:32:09.152Z,98711.14
2022-11-27T23:34:35.796Z,98706.27
2022-11-27T23:37:02.551Z,98702.41
2022-11-27T23:39:29.100Z,98705.55
2022-11-27T23:41:55.636Z,98707.29
2022-11-27T23:44:22.380Z,98702.48
2022-11-27T23:46:48.887Z,98701.71
2022-11-27T23:49:15.401Z,98703.70
2022-11-27T23:51:42.272Z,98702.54
2022-11-27T23:54:09.954Z,98705.55
2022-11-27T23:56:37.196Z,98701.51
2022-11-27T23:59:03.889Z,98698.91
